Time;durP1;ratioP1;P1;durP2;ratioP2;P2;SDS_P1;SDS_P2;PMS_P1;PMS_P2;Temp;Humidity;BMP_temperature;BMP_pressure;BME280_temperature;BME280_humidity;BME280_pressure;Samples;Min_cycle;Max_cycle;Signal;HPM_P1;HPM_P2
2023/06/23 00:00:05;;;;;;;2.30;1.40;;;19.90;99.90;;;19.84;100.00;97259.91;5073043;27;20042;-36
2023/06/23 00:02:30;;;;;;;1.50;1.30;;;19.90;99.90;;;19.84;100.00;97273.28;5071561;28;20138;-36
2023/06/23 00:04:56;;;;;;;1.50;1.20;;;19.90;99.90;;;19.87;100.00;97269.53;5075740;27;20403;-36
2023/06/23 00:07:22;;;;;;;1.88;1.30;;;19.90;99.90;;;19.87;100.00;97281.06;5076753;28;20393;-36
2023/06/23 00:09:48;;;;;;;1.77;1.58;;;19.90;99.90;;;19.89;100.00;97280.97;5081108;27;20045;-36
2023/06/23 00:12:13;;;;;;;1.40;1.30;;;19.90;99.90;;;19.87;100.00;97281.06;5077546;28;20034;-36
2023/06/23 00:14:39;;;;;;;2.05;1.50;;;19.90;99.90;;;19.89;100.00;97287.16;5078680;28;20485;-36
2023/06/23 00:17:07;;;;;;;2.42;1.60;;;19.90;99.90;;;19.87;100.00;97293.63;5073957;28;20028;-36
2023/06/23 00:19:32;;;;;;;1.95;1.40;;;19.90;99.90;;;19.85;100.00;97299.09;5082050;28;20031;-36
2023/06/23 00:21:58;;;;;;;2.92;1.40;;;19.90;99.90;;;19.83;100.00;97298.34;5084357;28;20420;-36
2023/06/23 00:24:24;;;;;;;1.55;1.33;;;19.90;99.90;;;19.83;100.00;97299.19;5073537;28;20032;-36
2023/06/23 00:26:50;;;;;;;2.17;1.27;;;19.90;99.90;;;19.83;100.00;97299.19;5078046;28;20481;-36
2023/06/23 00:29:16;;;;;;;1.60;1.38;;;19.90;99.90;;;19.83;100.00;97306.38;5079641;28;20020;-35
2023/06/23 00:31:43;;;;;;;2.05;1.00;;;19.90;99.90;;;19.83;100.00;97306.38;5080032;28;20039;-35
2023/06/23 00:34:08;;;;;;;1.63;1.42;;;19.90;99.90;;;19.84;100.00;97302.72;5081253;28;20024;-35
2023/06/23 00:36:35;;;;;;;1.67;1.38;;;19.90;99.90;;;19.83;100.00;97312.56;5083757;27;20490;-35
2023/06/23 00:39:04;;;;;;;1.75;1.38;;;19.80;99.90;;;19.82;100.00;97310.84;5081950;27;20040;-36
2023/06/23 00:41:30;;;;;;;1.50;1.20;;;19.80;99.90;;;19.83;100.00;97314.41;5085485;27;20024;-36
2023/06/23 00:43:59;;;;;;;1.67;1.20;;;19.90;99.90;;;19.82;100.00;97304.66;5085489;28;20108;-36
2023/06/23 00:46:26;;;;;;;1.75;1.23;;;19.80;99.90;;;19.82;100.00;97302.81;5075897;28;20110;-36
2023/06/23 00:48:52;;;;;;;1.52;1.30;;;19.90;99.90;;;19.79;100.00;97311.09;5081315;28;20026;-36
2023/06/23 00:51:18;;;;;;;1.55;1.30;;;19.80;99.90;;;19.77;100.00;97320.19;5059607;28;20055;-36
2023/06/23 00:53:48;;;;;;;2.05;1.35;;;19.90;99.90;;;19.77;100.00;97321.03;5060345;28;20115;-36
2023/06/23 00:56:21;;;;;;;2.25;1.30;;;19.80;99.90;;;19.75;100.00;97308.78;5077332;27;20070;-36
2023/06/23 00:58:48;;;;;;;1.48;1.30;;;19.80;99.90;;;19.68;100.00;97302.97;5078151;28;20680;-36
2023/06/23 01:01:14;;;;;;;2.10;1.60;;;19.80;99.90;;;19.72;100.00;97311.63;5073448;27;20119;-36
2023/06/23 01:03:40;;;;;;;6.00;1.98;;;19.80;99.90;;;19.67;100.00;97308.44;5078576;27;20032;-36
2023/06/23 01:06:37;;;;;;;2.75;1.90;;;19.70;99.90;;;19.57;100.00;97317.16;5078509;27;20068;-36
2023/06/23 01:09:22;;;;;;;1.85;1.63;;;19.70;99.90;;;19.52;100.00;97315.81;5064516;28;20168;-36
2023/06/23 01:12:26;;;;;;;2.50;1.70;;;19.60;99.90;;;19.49;100.00;97321.38;5066376;28;20032;-36
2023/06/23 01:15:14;;;;;;;2.50;2.00;;;19.60;99.90;;;19.29;100.00;97321.06;5062748;28;20525;-36
2023/06/23 01:17:51;;;;;;;2.35;2.13;;;19.40;99.90;;;18.99;100.00;97326.81;5065596;28;20031;-36
2023/06/23 01:20:24;;;;;;;2.20;2.00;;;19.10;99.90;;;18.66;100.00;97336.22;5060923;28;20473;-36
2023/06/23 01:23:54;;;;;;;2.85;2.35;;;18.80;99.90;;;18.30;100.00;97336.06;5066046;28;20469;-36
2023/06/23 01:26:45;;;;;;;2.90;2.20;;;18.50;99.90;;;17.90;100.00;97344.09;5075522;28;20077;-36
2023/06/23 01:29:21;;;;;;;5.40;2.10;;;18.20;99.90;;;17.74;100.00;97335.38;5058672;28;20047;-36
2023/06/23 01:31:55;;;;;;;3.88;2.45;;;18.00;99.90;;;17.56;100.00;97327.66;5062476;28;20034;-36
2023/06/23 01:34:26;;;;;;;2.65;2.40;;;17.80;99.90;;;17.44;100.00;97347.13;5053575;28;20231;-36
2023/06/23 01:37:03;;;;;;;4.13;3.05;;;17.70;99.90;;;17.24;100.00;97334.25;5075067;22;20794;-37
2023/06/23 01:39:34;;;;;;;4.22;2.50;;;17.50;99.90;;;17.12;100.00;97330.56;5041673;28;20712;-37
2023/06/23 01:42:04;;;;;;;5.57;3.72;;;17.30;99.90;;;16.95;100.00;97343.16;5046719;28;20024;-37
2023/06/23 01:44:31;;;;;;;5.70;3.50;;;17.20;99.90;;;16.87;100.00;97342.81;5045509;28;20119;-37
2023/06/23 01:47:10;;;;;;;4.32;3.67;;;17.10;99.90;;;16.90;100.00;97349.72;5044074;28;20112;-37
2023/06/23 01:49:37;;;;;;;4.40;4.00;;;17.00;99.90;;;16.74;100.00;97350.69;5027224;28;20025;-37
2023/06/23 01:52:06;;;;;;;4.50;3.67;;;17.00;99.90;;;16.70;100.00;97340.31;5041407;28;20048;-37
2023/06/23 01:54:37;;;;;;;7.20;3.90;;;16.90;99.90;;;16.63;100.00;97344.31;5042173;28;20031;-37
2023/06/23 01:57:05;;;;;;;6.75;4.57;;;16.80;99.90;;;16.56;100.00;97349.13;5023201;28;20029;-37
2023/06/23 01:59:33;;;;;;;4.60;4.07;;;16.80;99.90;;;16.47;100.00;97345.25;5042803;28;20035;-37
2023/06/23 02:02:00;;;;;;;6.78;4.20;;;16.80;99.90;;;16.58;100.00;97369.41;5046023;28;20036;-37
2023/06/23 02:04:28;;;;;;;4.63;4.00;;;16.70;99.90;;;16.54;100.00;97373.19;5017324;28;20165;-37
2023/06/23 02:06:55;;;;;;;5.80;4.25;;;16.80;99.90;;;16.50;100.00;97376.16;5045715;28;20113;-37
2023/06/23 02:09:24;;;;;;;5.28;3.92;;;16.70;99.90;;;16.48;100.00;97383.38;5019670;28;20032;-37
2023/06/23 02:11:52;;;;;;;5.75;3.45;;;16.70;99.90;;;16.46;100.00;97375.50;5027133;28;20036;-37
2023/06/23 02:14:20;;;;;;;5.28;4.13;;;16.70;99.90;;;16.45;100.00;97379.09;5018689;28;20028;-37
2023/06/23 02:16:46;;;;;;;4.82;3.50;;;16.70;99.90;;;16.39;100.00;97380.31;5024686;28;20108;-37
2023/06/23 02:19:14;;;;;;;3.65;3.13;;;16.70;99.90;;;16.33;100.00;97391.34;5010567;28;20486;-37
2023/06/23 02:21:42;;;;;;;3.83;3.00;;;16.60;99.90;;;16.34;100.00;97405.50;5027538;28;20592;-37
2023/06/23 02:24:08;;;;;;;4.45;3.15;;;16.60;99.90;;;16.34;100.00;97402.84;5026812;28;20016;-37
2023/06/23 02:26:36;;;;;;;4.07;3.30;;;16.60;99.90;;;16.33;100.00;97403.78;5044600;28;20058;-37
2023/06/23 02:29:04;;;;;;;4.35;3.10;;;16.60;99.90;;;16.32;100.00;97410.91;5025542;28;20041;-37
2023/06/23 02:31:30;;;;;;;4.40;3.40;;;16.60;99.90;;;16.33;100.00;97401.13;5043709;28;20029;-37
2023/06/23 02:33:56;;;;;;;4.28;3.35;;;16.50;99.90;;;16.28;100.00;97403.22;5043292;28;20028;-37
2023/06/23 02:36:24;;;;;;;4.35;2.92;;;16.50;99.90;;;16.23;100.00;97395.50;5043072;28;20032;-37
2023/06/23 02:38:54;;;;;;;4.25;3.15;;;16.50;99.90;;;16.21;100.00;97408.03;5025810;28;20482;-37
2023/06/23 02:41:22;;;;;;;3.60;3.10;;;16.50;99.90;;;16.15;100.00;97403.94;5041573;28;20078;-37
2023/06/23 02:43:53;;;;;;;4.35;3.42;;;16.50;99.90;;;16.21;100.00;97408.03;5038800;28;20028;-37
2023/06/23 02:46:27;;;;;;;6.32;4.05;;;16.50;99.90;;;16.16;100.00;97405.66;5041412;28;20029;-37
2023/06/23 02:48:58;;;;;;;6.10;4.88;;;16.40;99.90;;;16.12;100.00;97409.44;5044002;28;20037;-37
2023/06/23 02:51:27;;;;;;;6.35;4.93;;;16.40;99.90;;;16.10;100.00;97403.38;5020841;28;20033;-37
2023/06/23 02:54:08;;;;;;;8.02;4.85;;;16.40;99.90;;;16.15;100.00;97414.59;5013768;28;20044;-37
2023/06/23 02:56:43;;;;;;;6.82;5.50;;;16.40;99.90;;;16.12;100.00;97416.56;5019413;28;20508;-37
2023/06/23 02:59:16;;;;;;;5.75;4.55;;;16.40;99.90;;;16.01;100.00;97404.75;5044177;28;20029;-37
2023/06/23 03:01:45;;;;;;;8.07;5.68;;;16.40;99.90;;;16.01;100.00;97402.09;5044263;28;20365;-37
2023/06/23 03:04:11;;;;;;;7.32;6.28;;;16.30;99.90;;;16.05;100.00;97424.06;5036660;28;20157;-37
2023/06/23 03:06:39;;;;;;;8.13;6.22;;;16.30;99.90;;;16.05;100.00;97431.19;5038412;28;21155;-37
2023/06/23 03:09:06;;;;;;;7.72;5.57;;;16.20;99.90;;;16.00;100.00;97426.13;5042095;28;20037;-37
2023/06/23 03:11:33;;;;;;;10.00;7.47;;;16.30;99.90;;;16.04;100.00;97432.97;5046693;28;20036;-37
2023/06/23 03:13:59;;;;;;;8.70;6.85;;;16.30;99.90;;;15.96;100.00;97430.75;5047390;28;20060;-37
2023/06/23 03:16:46;;;;;;;7.32;6.18;;;16.30;99.90;;;16.07;100.00;97438.13;5047521;28;20108;-36
2023/06/23 03:19:43;;;;;;;10.98;6.45;;;16.30;99.90;;;16.10;100.00;97437.09;5041032;28;20125;-37
2023/06/23 03:22:21;;;;;;;12.45;9.18;;;16.30;99.90;;;16.08;100.00;97447.81;5041045;28;20798;-37
2023/06/23 03:24:53;;;;;;;12.25;8.18;;;16.30;99.90;;;16.12;100.00;97448.50;5027427;28;20147;-37
2023/06/23 03:27:22;;;;;;;11.57;7.78;;;16.30;99.90;;;16.11;100.00;97458.25;5027430;28;20121;-37
2023/06/23 03:29:53;;;;;;;10.10;8.30;;;16.30;99.90;;;16.03;100.00;97439.25;5026214;28;20027;-37
2023/06/23 03:32:26;;;;;;;11.25;8.65;;;16.30;99.90;;;16.08;100.00;97442.50;5044650;28;20044;-37
2023/06/23 03:35:03;;;;;;;11.98;8.60;;;16.30;99.90;;;16.11;100.00;97458.25;5029578;28;20025;-36
2023/06/23 03:37:32;;;;;;;12.38;8.77;;;16.40;99.90;;;16.13;100.00;97455.53;5040753;28;20029;-36
2023/06/23 03:40:09;;;;;;;11.38;9.63;;;16.30;99.90;;;16.07;100.00;97451.41;5027240;28;20029;-37
2023/06/23 03:42:40;;;;;;;10.80;8.30;;;16.30;99.90;;;16.17;100.00;97465.06;5043797;28;20325;-37
2023/06/23 03:45:08;;;;;;;10.18;8.18;;;16.40;99.90;;;16.18;100.00;97466.75;5039212;28;20120;-37
2023/06/23 03:47:36;;;;;;;13.70;9.60;;;16.40;99.90;;;16.19;100.00;97473.81;5026155;28;20075;-37
2023/06/23 03:50:11;;;;;;;9.88;7.88;;;16.40;99.90;;;16.23;100.00;97470.84;5026595;28;20068;-36
2023/06/23 03:52:43;;;;;;;12.65;10.18;;;16.50;99.90;;;16.26;100.00;97482.25;5023113;28;20356;-37
2023/06/23 03:55:13;;;;;;;12.57;8.75;;;16.50;99.90;;;16.31;100.00;97482.84;5038878;28;20032;-37
2023/06/23 03:57:40;;;;;;;11.55;9.27;;;16.50;99.90;;;16.34;100.00;97483.53;5025318;28;20040;-36
2023/06/23 04:00:07;;;;;;;12.32;8.90;;;16.50;99.90;;;16.41;100.00;97484.03;5022090;28;20051;-37
2023/06/23 04:02:35;;;;;;;10.82;8.27;;;16.60;99.90;;;16.49;100.00;97489.78;5046079;28;20040;-37
2023/06/23 04:05:03;;;;;;;10.30;9.20;;;16.70;99.90;;;16.52;100.00;97494.03;5038088;28;20025;-37
2023/06/23 04:07:30;;;;;;;10.73;8.48;;;16.70;99.90;;;16.60;100.00;97494.47;5039936;28;20071;-37
2023/06/23 04:10:00;;;;;;;11.68;9.98;;;16.80;99.90;;;16.66;100.00;97507.38;5025537;28;20701;-37
2023/06/23 04:12:27;;;;;;;9.85;8.05;;;16.90;99.90;;;16.68;100.00;97494.84;5026400;28;20041;-37
2023/06/23 04:14:54;;;;;;;12.25;8.43;;;17.00;99.90;;;16.80;100.00;97512.75;5048736;28;20041;-37
2023/06/23 04:17:24;;;;;;;12.88;9.27;;;17.00;99.90;;;16.76;100.00;97503.22;5045133;28;20072;-37
2023/06/23 04:19:56;;;;;;;11.43;9.07;;;17.00;99.90;;;16.77;100.00;97506.75;5039965;28;20713;-37
2023/06/23 04:22:23;;;;;;;12.63;9.60;;;17.10;99.90;;;16.82;100.00;97519.78;5041561;28;20021;-37
2023/06/23 04:24:49;;;;;;;15.45;10.10;;;17.10;99.90;;;16.85;100.00;97531.16;5042900;28;20086;-37
2023/06/23 04:27:17;;;;;;;8.88;7.72;;;17.10;99.90;;;16.87;100.00;97526.59;5032205;28;20544;-36
2023/06/23 04:29:49;;;;;;;9.98;8.10;;;17.10;99.90;;;16.88;100.00;97538.09;5018880;28;20063;-37
2023/06/23 04:32:16;;;;;;;13.10;9.97;;;17.10;99.90;;;16.84;100.00;97529.44;5036230;28;20832;-39
2023/06/23 04:34:42;;;;;;;12.38;9.70;;;17.10;99.90;;;16.81;100.00;97518.91;5039192;28;20028;-38
2023/06/23 04:37:32;;;;;;;15.07;9.25;;;17.10;99.90;;;17.04;100.00;97559.34;5043989;28;20420;-38
2023/06/23 04:40:17;;;;;;;12.50;10.43;;;17.20;99.90;;;17.09;100.00;97563.44;5046806;28;20036;-37
2023/06/23 04:42:51;;;;;;;11.63;9.32;;;17.30;99.90;;;17.15;100.00;97551.53;5020308;28;20029;-38
2023/06/23 04:45:22;;;;;;;12.80;9.55;;;17.40;99.90;;;17.30;100.00;97557.72;5012769;28;20509;-39
2023/06/23 04:48:00;;;;;;;12.70;9.00;;;17.50;99.90;;;17.40;100.00;97564.22;5035481;28;20036;-39
2023/06/23 04:50:30;;;;;;;12.68;9.77;;;17.60;99.90;;;17.50;100.00;97561.84;5042053;28;20108;-39
2023/06/23 04:53:05;;;;;;;15.68;11.75;;;17.70;99.90;;;17.43;100.00;97579.19;5027473;28;23589;-38
2023/06/23 04:55:35;;;;;;;9.77;7.90;;;17.70;99.90;;;17.52;100.00;97590.13;5023140;28;20402;-38
2023/06/23 04:58:04;;;;;;;13.05;10.75;;;17.70;99.90;;;17.45;100.00;97587.94;5028389;28;20033;-38
2023/06/23 05:00:32;;;;;;;16.67;10.57;;;17.70;99.90;;;17.41;100.00;97589.06;5040152;28;20565;-38
2023/06/23 05:02:59;;;;;;;11.10;8.98;;;17.60;99.90;;;17.44;100.00;97583.53;5023559;28;20063;-37
2023/06/23 05:05:28;;;;;;;13.85;10.10;;;17.60;99.90;;;17.29;100.00;97588.00;5023058;28;20039;-37
2023/06/23 05:07:56;;;;;;;14.88;10.38;;;17.60;99.90;;;17.35;100.00;97590.28;5026361;28;20501;-37
2023/06/23 05:10:23;;;;;;;12.50;10.43;;;17.50;99.90;;;17.35;100.00;97603.63;5024138;28;20040;-37
2023/06/23 05:12:52;;;;;;;21.35;13.20;;;17.60;99.90;;;17.34;100.00;97596.59;5032243;28;20036;-37
2023/06/23 05:15:20;;;;;;;17.20;12.60;;;17.60;99.90;;;17.43;100.00;97601.34;5022342;28;20037;-37
2023/06/23 05:17:48;;;;;;;13.88;10.55;;;17.60;99.90;;;17.56;100.00;97601.44;5037536;28;20677;-37
2023/06/23 05:20:19;;;;;;;11.88;9.18;;;17.70;99.90;;;17.67;100.00;97604.28;5017555;28;20043;-37
2023/06/23 05:22:48;;;;;;;15.05;12.05;;;17.80;99.90;;;17.73;100.00;97592.41;5034874;28;20227;-39
2023/06/23 05:25:17;;;;;;;17.90;13.30;;;17.90;99.90;;;17.83;100.00;97598.84;5033489;28;20530;-39
2023/06/23 05:27:45;;;;;;;18.83;14.02;;;18.00;99.90;;;18.01;100.00;97591.53;5023846;28;20422;-38
2023/06/23 05:30:16;;;;;;;16.73;12.40;;;18.10;99.90;;;18.20;100.00;97596.53;5024729;28;20063;-39
2023/06/23 05:32:44;;;;;;;20.17;15.07;;;18.30;99.90;;;18.61;100.00;97600.13;5044874;28;20106;-39
2023/06/23 05:35:12;;;;;;;20.70;13.80;;;18.60;99.90;;;18.96;100.00;97602.28;5024524;28;20025;-39
2023/06/23 05:37:39;;;;;;;18.20;12.77;;;18.80;99.90;;;19.14;100.00;97602.84;5016799;28;20173;-39
2023/06/23 05:40:08;;;;;;;22.23;15.30;;;19.00;99.90;;;19.12;100.00;97597.59;5023851;28;20020;-40
2023/06/23 05:42:34;;;;;;;17.83;12.38;;;19.10;99.90;;;19.23;100.00;97603.06;5038692;28;20391;-39
2023/06/23 05:45:02;;;;;;;17.08;12.50;;;19.30;99.90;;;19.27;100.00;97603.69;5044835;28;20032;-39
2023/06/23 05:47:49;;;;;;;19.33;14.63;;;19.30;99.90;;;19.17;100.00;97605.31;5019353;28;20044;-38
2023/06/23 05:50:21;;;;;;;25.98;17.80;;;19.30;99.90;;;18.92;100.00;97614.16;5017106;28;20047;-39
2023/06/23 05:52:57;;;;;;;18.88;14.35;;;19.20;99.90;;;18.75;100.00;97618.75;5026757;28;20040;-39
2023/06/23 05:55:27;;;;;;;18.90;14.70;;;19.10;99.90;;;18.72;100.00;97607.41;5035214;28;20040;-38
2023/06/23 05:57:59;;;;;;;21.67;14.93;;;18.90;99.90;;;18.66;100.00;97622.91;5026521;28;20040;-41
2023/06/23 06:00:33;;;;;;;19.85;14.50;;;18.90;99.90;;;18.54;100.00;97606.81;5024849;28;20101;-36
2023/06/23 06:03:02;;;;;;;16.80;13.80;;;18.90;99.90;;;18.68;100.00;97614.78;5035713;28;20078;-36
2023/06/23 06:05:29;;;;;;;19.20;14.40;;;18.90;99.90;;;18.75;100.00;97620.56;5022951;28;20406;-35
2023/06/23 06:07:57;;;;;;;19.63;14.57;;;19.00;99.90;;;18.77;100.00;97627.53;5042135;28;20060;-36
2023/06/23 06:10:26;;;;;;;19.48;14.30;;;19.00;99.90;;;18.82;100.00;97630.78;5039485;28;20666;-36
2023/06/23 06:12:53;;;;;;;17.35;12.65;;;19.10;99.90;;;18.96;100.00;97629.00;5029976;28;20558;-36
2023/06/23 06:15:20;;;;;;;19.92;15.07;;;19.20;99.90;;;19.02;100.00;97634.81;5023270;28;20037;-36
2023/06/23 06:17:47;;;;;;;15.43;11.00;;;19.20;99.90;;;19.19;100.00;97636.31;5039332;28;20279;-36
2023/06/23 06:20:14;;;;;;;20.75;13.27;;;19.40;99.90;;;19.24;100.00;97636.88;5018331;28;20025;-37
2023/06/23 06:22:44;;;;;;;20.02;15.25;;;19.40;99.90;;;19.51;100.00;97638.59;5019888;28;20028;-36
2023/06/23 06:25:12;;;;;;;20.70;15.75;;;19.70;99.90;;;19.73;100.00;97632.63;5019440;28;20551;-36
2023/06/23 06:27:41;;;;;;;20.80;14.68;;;20.00;99.90;;;19.97;100.00;97639.88;5029167;28;20076;-36
2023/06/23 06:30:09;;;;;;;18.42;13.50;;;20.10;99.90;;;19.90;100.00;97642.16;5021160;28;20070;-36
2023/06/23 06:32:38;;;;;;;21.65;14.82;;;20.20;99.90;;;19.80;100.00;97646.44;5023701;28;20044;-36
2023/06/23 06:35:08;;;;;;;16.70;12.15;;;20.10;99.90;;;19.96;100.00;97649.72;5021340;28;20191;-36
2023/06/23 06:37:47;;;;;;;15.10;11.82;;;20.20;99.90;;;19.95;100.00;97661.41;5025706;28;20406;-36
2023/06/23 06:40:18;;;;;;;19.80;13.73;;;20.10;99.90;;;19.61;100.00;97661.09;5041408;28;20485;-36
2023/06/23 06:42:44;;;;;;;17.55;13.07;;;20.00;99.90;;;19.46;100.00;97676.34;5032336;28;20544;-36
2023/06/23 06:45:10;;;;;;;17.95;13.43;;;19.90;99.90;;;19.37;100.00;97673.47;5047253;28;20024;-36
2023/06/23 06:47:43;;;;;;;18.33;12.90;;;19.70;99.90;;;19.20;100.00;97679.94;5049038;28;20039;-36
2023/06/23 06:50:15;;;;;;;19.17;13.27;;;19.60;99.90;;;19.18;100.00;97696.09;5044803;28;20037;-36
2023/06/23 06:52:43;;;;;;;22.30;14.93;;;19.50;99.90;;;18.96;100.00;97687.81;5044458;28;20047;-36
2023/06/23 06:55:18;;;;;;;20.90;14.00;;;19.40;99.90;;;19.04;100.00;97706.84;5046184;28;20679;-36
2023/06/23 06:57:48;;;;;;;26.30;16.55;;;19.30;99.90;;;18.90;100.00;97710.44;5051100;28;20443;-36
2023/06/23 07:00:18;;;;;;;21.85;14.52;;;19.30;99.90;;;19.01;100.00;97725.78;5044332;28;20032;-36
2023/06/23 07:02:44;;;;;;;20.15;14.82;;;19.30;99.90;;;19.33;100.00;97720.09;5029169;28;20043;-36
2023/06/23 07:05:10;;;;;;;18.60;13.77;;;19.60;99.90;;;19.60;100.00;97718.22;5025457;28;20105;-36
2023/06/23 07:07:37;;;;;;;16.10;12.50;;;19.90;99.90;;;19.73;100.00;97728.97;5045570;28;20033;-36
2023/06/23 07:10:03;;;;;;;20.67;14.38;;;20.00;99.90;;;19.61;100.00;97719.94;5053101;28;20082;-36
2023/06/23 07:12:31;;;;;;;19.98;14.18;;;20.00;99.90;;;19.49;100.00;97742.19;5049281;28;20094;-36
2023/06/23 07:14:57;;;;;;;16.52;12.27;;;19.90;99.90;;;19.41;100.00;97733.78;5044591;28;20036;-36
2023/06/23 07:17:22;;;;;;;17.13;11.52;;;19.80;99.90;;;19.80;100.00;97742.78;5039050;28;20141;-36
2023/06/23 07:19:48;;;;;;;14.05;10.57;;;20.00;99.90;;;20.10;100.00;97730.88;5042943;28;20448;-36
2023/06/23 07:22:14;;;;;;;18.95;13.00;;;20.40;99.90;;;20.33;94.47;97740.84;5044089;28;20497;-36
2023/06/23 07:24:40;;;;;;;15.15;11.60;;;20.60;99.90;;;20.34;95.80;97765.78;5043408;28;20032;-36
2023/06/23 07:27:07;;;;;;;15.20;11.30;;;20.60;99.90;;;20.17;98.56;97756.25;5044434;28;20415;-36
2023/06/23 07:29:34;;;;;;;14.57;10.77;;;20.50;99.90;;;20.06;96.44;97751.66;5041146;28;20029;-36
2023/06/23 07:32:01;;;;;;;17.65;12.75;;;20.40;99.90;;;19.88;96.02;97755.63;5048323;28;20024;-36
2023/06/23 07:34:28;;;;;;;19.20;12.10;;;20.30;99.90;;;20.00;94.46;97752.09;5046558;28;20446;-36
2023/06/23 07:36:54;;;;;;;16.98;12.23;;;20.40;99.90;;;20.02;95.13;97767.06;5046973;28;20033;-36
2023/06/23 07:39:20;;;;;;;14.45;10.85;;;20.40;99.90;;;19.92;95.20;97776.72;5040103;28;20125;-36
2023/06/23 07:41:45;;;;;;;13.73;10.43;;;20.30;99.90;;;19.78;95.93;97761.63;5044899;28;20151;-36
2023/06/23 07:44:11;;;;;;;15.02;10.57;;;20.20;99.90;;;19.95;98.52;97773.81;5044152;28;20592;-36
2023/06/23 07:46:37;;;;;;;11.68;8.38;;;20.30;99.90;;;20.13;99.28;97776.19;5046774;28;20035;-36
2023/06/23 07:49:02;;;;;;;13.70;10.70;;;20.40;99.90;;;20.21;92.60;97773.84;5050873;28;20363;-36
2023/06/23 07:51:28;;;;;;;14.93;9.80;;;20.60;99.90;;;20.48;93.46;97783.56;5042113;28;20025;-36
2023/06/23 07:53:55;;;;;;;9.80;7.38;;;20.70;99.90;;;20.69;96.56;97781.19;5048439;28;20452;-36
2023/06/23 07:56:21;;;;;;;17.17;10.70;;;20.90;99.90;;;20.65;88.01;97790.44;5041498;28;20059;-36
2023/06/23 07:58:46;;;;;;;17.90;11.48;;;21.00;99.90;;;20.52;88.19;97793.94;5046607;28;20165;-36
2023/06/23 08:01:12;;;;;;;14.25;8.27;;;20.90;99.90;;;20.39;93.63;97802.00;5037872;28;20028;-39
2023/06/23 08:03:38;;;;;;;14.93;8.43;;;20.80;99.90;;;20.40;94.90;97803.72;5045617;28;20124;-39
2023/06/23 08:06:04;;;;;;;11.73;8.50;;;20.80;99.90;;;20.53;96.52;97806.38;5043197;28;20032;-38
2023/06/23 08:08:30;;;;;;;11.65;7.90;;;20.80;99.90;;;20.64;93.63;97815.50;5043813;28;20033;-38
2023/06/23 08:10:55;;;;;;;11.30;8.23;;;20.90;99.90;;;20.60;94.34;97809.47;5049539;28;20029;-38
2023/06/23 08:13:21;;;;;;;15.07;8.93;;;20.90;99.90;;;20.52;88.01;97822.56;5042584;28;20064;-39
2023/06/23 08:15:47;;;;;;;11.45;9.10;;;20.80;99.90;;;20.32;88.32;97824.81;5049704;28;20032;-38
2023/06/23 08:18:13;;;;;;;9.35;7.32;;;20.80;99.90;;;20.33;93.62;97834.59;5045458;28;20464;-38
2023/06/23 08:20:38;;;;;;;12.70;9.23;;;20.70;99.90;;;20.34;88.90;97830.94;5044276;28;20503;-39
2023/06/23 08:23:04;;;;;;;10.68;7.70;;;20.70;99.90;;;20.37;92.59;97825.38;5042507;28;20032;-39
2023/06/23 08:25:30;;;;;;;14.32;9.57;;;20.70;99.90;;;20.61;85.69;97838.03;5046318;28;20077;-38
2023/06/23 08:27:56;;;;;;;11.05;7.85;;;20.90;99.90;;;20.82;89.59;97840.13;5049373;28;20043;-36
2023/06/23 08:30:27;;;;;;;13.05;8.77;;;21.10;99.90;;;20.90;84.67;97848.47;5042966;28;20071;-36
2023/06/23 08:32:53;;;;;;;12.40;8.30;;;21.20;99.90;;;20.94;86.42;97840.13;5044162;28;22612;-37
2023/06/23 08:35:19;;;;;;;11.18;8.00;;;21.30;99.90;;;21.05;88.25;97841.16;5041572;28;20075;-40
2023/06/23 08:37:44;;;;;;;11.30;9.13;;;21.40;99.90;;;21.10;81.83;97844.34;5042331;28;20560;-38
2023/06/23 08:40:11;;;;;;;9.82;6.90;;;21.40;99.90;;;21.11;88.13;97846.09;5046978;28;20374;-38
2023/06/23 08:42:37;;;;;;;10.40;7.07;;;21.50;99.90;;;21.20;88.69;97860.66;5028059;28;20097;-38
2023/06/23 08:45:03;;;;;;;9.45;6.95;;;21.50;99.90;;;21.36;86.66;97855.88;5027833;28;20074;-38
2023/06/23 08:47:31;;;;;;;11.80;9.73;;;21.70;99.90;;;21.09;79.66;97851.56;5043406;28;20032;-38
2023/06/23 08:49:57;;;;;;;14.80;8.82;;;21.60;99.90;;;21.00;84.17;97849.53;5047383;28;20032;-38
2023/06/23 08:52:24;;;;;;;8.85;6.82;;;21.40;99.90;;;21.17;86.46;97840.25;5041810;28;20067;-39
2023/06/23 08:54:50;;;;;;;11.95;8.80;;;21.50;99.90;;;21.53;79.73;97855.53;5045239;28;20349;-38
2023/06/23 08:57:17;;;;;;;12.38;8.80;;;21.80;99.90;;;21.85;76.00;97851.38;5039301;28;20179;-38
2023/06/23 08:59:43;;;;;;;11.23;8.48;;;22.10;99.90;;;22.16;74.86;97847.19;5029305;28;20433;-38
2023/06/23 09:02:09;;;;;;;9.63;7.68;;;22.40;99.90;;;22.20;77.08;97835.25;5024247;28;20031;-37
2023/06/23 09:04:34;;;;;;;11.60;9.18;;;22.50;99.90;;;22.08;75.98;97855.84;5045491;28;20021;-37
2023/06/23 09:07:00;;;;;;;14.00;8.95;;;22.50;99.90;;;22.12;77.15;97841.19;5046949;28;20063;-37
2023/06/23 09:09:26;;;;;;;10.43;8.25;;;22.50;99.90;;;22.25;73.85;97854.56;5044132;28;20037;-37
2023/06/23 09:11:52;;;;;;;9.63;8.07;;;22.60;99.90;;;22.29;73.48;97861.44;5042024;28;20037;-37
2023/06/23 09:14:18;;;;;;;9.38;6.60;;;22.60;99.90;;;22.43;75.40;97859.47;5027706;28;20025;-36
2023/06/23 09:16:45;;;;;;;9.00;6.78;;;22.70;99.90;;;22.41;75.15;97861.44;5044109;28;20036;-37
2023/06/23 09:19:12;;;;;;;11.18;9.02;;;22.70;99.90;;;22.06;70.49;97862.31;5031697;28;20367;-37
2023/06/23 09:21:41;;;;;;;10.88;8.65;;;22.60;99.90;;;21.81;72.43;97863.31;5041344;28;20043;-39
2023/06/23 09:24:07;;;;;;;9.55;7.80;;;22.30;99.90;;;21.63;75.73;97853.00;5045417;28;20490;-38
2023/06/23 09:26:56;;;;;;;8.73;7.53;;;22.10;99.90;;;21.67;81.98;97856.31;5041201;28;20083;-38
2023/06/23 09:29:26;;;;;;;9.25;6.13;;;22.00;99.90;;;21.99;77.01;97864.59;5043227;28;20032;-38
2023/06/23 09:31:53;;;;;;;8.85;7.60;;;22.20;99.90;;;22.15;69.82;97855.38;5043547;28;20490;-38
2023/06/23 09:34:23;;;;;;;12.55;7.82;;;22.50;99.90;;;22.49;68.14;97861.72;5032972;28;20037;-38
2023/06/23 09:36:49;;;;;;;9.88;7.65;;;22.80;99.90;;;22.47;69.02;97859.13;5041751;28;20059;-38
2023/06/23 09:39:15;;;;;;;6.53;5.72;;;22.80;99.90;;;22.49;73.71;97850.97;5043781;28;20032;-38
2023/06/23 09:41:58;;;;;;;11.40;6.57;;;22.80;99.90;;;22.43;72.24;97867.53;5039198;28;20782;-39
2023/06/23 09:44:34;;;;;;;;;;;22.60;99.90;;;22.30;69.77;97871.19;5040577;28;20070;-38
2023/06/23 09:47:04;;;;;;;9.25;6.50;;;22.50;99.90;;;22.22;67.67;97860.16;5034836;28;19920;-38
2023/06/23 09:49:38;;;;;;;6.95;5.32;;;22.50;99.90;;;22.46;73.91;97867.31;5044397;28;20036;-37
2023/06/23 09:52:04;;;;;;;10.18;6.35;;;22.60;99.90;;;22.73;65.26;97868.81;5040641;28;20048;-37
2023/06/23 09:54:42;;;;;;;6.32;5.40;;;22.80;99.90;;;22.66;70.56;97863.91;5024765;28;20445;-37
2023/06/23 09:57:12;;;;;;;8.00;5.03;;;22.90;99.90;;;22.75;70.41;97867.69;5038757;28;20033;-37
2023/06/23 09:59:44;;;;;;;9.02;5.90;;;22.90;99.90;;;22.77;62.71;97868.44;5036521;28;20321;-37
2023/06/23 10:02:27;;;;;;;7.60;5.80;;;23.00;99.90;;;22.89;64.88;97853.16;5038809;28;20174;-37
2023/06/23 10:05:05;;;;;;;5.78;5.18;;;23.10;99.90;;;22.96;58.28;97867.84;5045058;28;20043;-37
2023/06/23 10:07:32;;;;;;;5.15;4.35;;;23.20;99.90;;;22.89;59.13;97872.00;5041498;28;20462;-37
2023/06/23 10:10:04;;;;;;;6.57;5.07;;;23.00;99.90;;;22.82;59.82;97862.69;5043708;28;20039;-37
2023/06/23 10:12:32;;;;;;;7.53;5.97;;;23.00;99.90;;;22.57;58.21;97867.31;5041720;28;20074;-37
2023/06/23 10:14:58;;;;;;;8.38;5.95;;;22.90;99.90;;;22.58;59.91;97865.50;5040947;28;20146;-37
2023/06/23 10:17:24;;;;;;;9.10;5.75;;;22.90;99.90;;;22.63;59.77;97860.59;5041683;28;20041;-37
2023/06/23 10:19:54;;;;;;;6.65;4.88;;;22.90;99.90;;;22.97;59.66;97860.59;5039962;28;20036;-38